createdAt,value
2022-09-13T00:00:54.183Z,98929.44
2022-09-13T00:03:23.277Z,98982.19
2022-09-13T00:05:51.537Z,98978.19
2022-09-13T00:08:20.323Z,98984.22
2022-09-13T00:10:48.771Z,98980.88
2022-09-13T00:13:18.198Z,98985.53
2022-09-13T00:15:47.188Z,98977.19
2022-09-13T00:18:16.975Z,98969.69
2022-09-13T00:20:48.299Z,98961.84
2022-09-13T00:23:16.305Z,99025.78
2022-09-13T00:25:44.184Z,99065.69
2022-09-13T00:28:12.439Z,99085.38
2022-09-13T00:30:40.537Z,99106.44
2022-09-13T00:33:08.500Z,99082.22
2022-09-13T00:35:37.758Z,99118.94
2022-09-13T00:38:06.076Z,99116.94
2022-09-13T00:40:38.881Z,99106.94
2022-09-13T00:43:13.387Z,99148.53
2022-09-13T00:45:41.701Z,99169.94
2022-09-13T00:48:17.581Z,99196.16
2022-09-13T00:50:49.987Z,99203.66
2022-09-13T00:53:23.355Z,99237.09
2022-09-13T00:55:55.597Z,99263.03
2022-09-13T00:58:29.793Z,99244.78
2022-09-13T01:01:00.066Z,99222.22
2022-09-13T01:03:32.031Z,99237.09
2022-09-13T01:06:07.009Z,99213.69
2022-09-13T01:08:38.729Z,99203.34
2022-09-13T01:11:11.939Z,99202.66
2022-09-13T01:13:41.203Z,99167.75
2022-09-13T01:16:09.448Z,99162.72
2022-09-13T01:18:37.406Z,99145.16
2022-09-13T01:21:52.181Z,99182.63
2022-09-13T01:24:56.430Z,99206.16
2022-09-13T01:27:39.925Z,99208.66
2022-09-13T01:30:16.567Z,99206.34
2022-09-13T01:33:20.479Z,99224.38
2022-09-13T01:36:04.491Z,99207.66
2022-09-13T01:38:48.894Z,99253.13
2022-09-13T01:41:37.343Z,99246.94
2022-09-13T01:44:19.069Z,99272.50
2022-09-13T01:46:54.476Z,99245.44
2022-09-13T01:49:30.730Z,99194.31
2022-09-13T01:52:03.491Z,99191.78
2022-09-13T01:54:36.448Z,99174.25
2022-09-13T01:57:14.325Z,99197.28
2022-09-13T01:59:50.978Z,99253.44
2022-09-13T02:02:25.329Z,99240.72
2022-09-13T02:04:57.518Z,99225.03
2022-09-13T02:07:30.479Z,99224.19
2022-09-13T02:10:03.606Z,99189.13
2022-09-13T02:12:37.514Z,99216.66
2022-09-13T02:15:11.730Z,99213.00
2022-09-13T02:17:45.301Z,99237.22
2022-09-13T02:20:18.396Z,99216.03
2022-09-13T02:22:53.503Z,99219.84
2022-09-13T02:25:24.439Z,99242.41
2022-09-13T02:27:59.203Z,99256.44
2022-09-13T02:30:28.703Z,99257.13
2022-09-13T02:33:02.791Z,99266.63
2022-09-13T02:35:36.232Z,99232.03
2022-09-13T02:38:07.044Z,99253.59
2022-09-13T02:40:41.195Z,99288.69
2022-09-13T02:43:13.926Z,99299.91
2022-09-13T02:45:47.762Z,99262.78
2022-09-13T02:48:26.057Z,99277.50
2022-09-13T02:51:04.120Z,99246.09
2022-09-13T02:53:41.701Z,99252.25
2022-09-13T02:56:18.849Z,99268.63
2022-09-13T02:58:52.470Z,99255.94
2022-09-13T03:01:21.623Z,99215.50
2022-09-13T03:03:53.696Z,99229.69
2022-09-13T03:06:26.156Z,99216.66
2022-09-13T03:08:54.906Z,99197.91
2022-09-13T03:11:36.055Z,99232.38
2022-09-13T03:14:21.127Z,99190.91
2022-09-13T03:17:06.437Z,99196.78
2022-09-13T03:19:49.302Z,99199.28
2022-09-13T03:22:36.113Z,99173.69
2022-09-13T03:25:10.351Z,99166.84
2022-09-13T03:27:47.118Z,99142.28
2022-09-13T03:30:17.107Z,99244.72
2022-09-13T03:32:51.961Z,99246.72
2022-09-13T03:35:29.541Z,99236.38
2022-09-13T03:38:03.171Z,99246.56
2022-09-13T03:40:39.517Z,99255.09
2022-09-13T03:43:13.709Z,99274.31
2022-09-13T03:45:45.766Z,99344.56
2022-09-13T03:48:16.322Z,99401.91
2022-09-13T03:50:47.929Z,99392.50
2022-09-13T03:53:20.328Z,99373.63
2022-09-13T03:55:48.332Z,99383.84
2022-09-13T03:58:18.326Z,99380.81
2022-09-13T04:00:46.737Z,99386.84
2022-09-13T04:03:16.013Z,99396.84
2022-09-13T04:05:46.776Z,99479.53
2022-09-13T04:08:14.838Z,99507.31
2022-09-13T04:10:42.708Z,99510.84
2022-09-13T04:13:10.655Z,99482.31
2022-09-13T04:15:38.726Z,99494.59
2022-09-13T04:18:06.595Z,99516.34
2022-09-13T04:20:35.887Z,99502.44
2022-09-13T04:23:05.226Z,99504.97
2022-09-13T04:25:33.278Z,99539.09
2022-09-13T04:28:04.228Z,99513.81
2022-09-13T04:30:32.302Z,99518.00
2022-09-13T04:33:00.226Z,99534.59
2022-09-13T04:35:28.968Z,99578.16
2022-09-13T04:37:58.175Z,99569.03
2022-09-13T04:40:27.499Z,99565.53
2022-09-13T04:42:55.388Z,99567.19
2022-09-13T04:45:23.810Z,99601.75
2022-09-13T04:47:53.862Z,99627.19
2022-09-13T04:50:21.881Z,99649.97
2022-09-13T04:52:50.223Z,99690.84
2022-09-13T04:55:18.142Z,99667.69
2022-09-13T04:57:47.628Z,99703.91
2022-09-13T05:00:16.140Z,99738.09
2022-09-13T05:02:44.647Z,99741.44
2022-09-13T05:05:12.630Z,99735.25
2022-09-13T05:07:40.852Z,99813.69
2022-09-13T05:10:09.716Z,99793.72
2022-09-13T05:12:40.415Z,99797.94
2022-09-13T05:15:12.121Z,99812.84
2022-09-13T05:17:40.018Z,99846.06
2022-09-13T05:20:09.739Z,99855.78
2022-09-13T05:22:37.720Z,99882.59
2022-09-13T05:25:06.376Z,99870.53
2022-09-13T05:27:34.330Z,99886.28
2022-09-13T05:30:02.157Z,99900.97
2022-09-13T05:32:32.324Z,99921.16
2022-09-13T05:35:00.227Z,99922.31
2022-09-13T05:37:28.251Z,99929.88
2022-09-13T05:40:12.681Z,99968.28
2022-09-13T05:42:40.830Z,99960.72
2022-09-13T05:45:10.657Z,100025.88
2022-09-13T05:47:39.874Z,99963.94
2022-09-13T05:50:11.040Z,99994.66
2022-09-13T05:52:41.695Z,99991.97
2022-09-13T05:55:10.700Z,99992.66
2022-09-13T05:57:38.603Z,100030.38
2022-09-13T06:00:07.622Z,99979.84
2022-09-13T06:02:36.127Z,100000.00
2022-09-13T06:05:06.663Z,99966.75
2022-09-13T06:07:35.325Z,99981.84
2022-09-13T06:10:04.883Z,100008.56
2022-09-13T06:12:32.716Z,100021.97
2022-09-13T06:15:00.836Z,100032.38
2022-09-13T06:17:28.800Z,100040.25
2022-09-13T06:19:57.182Z,100050.81
2022-09-13T06:22:33.425Z,100069.81
2022-09-13T06:25:01.634Z,100060.25
2022-09-13T06:27:30.816Z,100060.25
2022-09-13T06:29:58.801Z,100083.91
2022-09-13T06:32:26.797Z,100054.34
2022-09-13T06:34:54.574Z,100060.69
2022-09-13T06:37:22.333Z,100049.00
2022-09-13T06:39:51.997Z,100038.56
2022-09-13T06:42:20.011Z,100024.81
2022-09-13T06:44:48.594Z,100030.69
2022-09-13T06:47:16.501Z,100063.06
2022-09-13T06:49:44.378Z,100071.78
2022-09-13T06:52:12.344Z,100091.94
2022-09-13T06:54:40.145Z,100102.97
2022-09-13T06:57:09.667Z,100093.09
2022-09-13T06:59:37.614Z,100085.88
2022-09-13T07:02:05.618Z,100134.97
2022-09-13T07:04:33.620Z,100133.97
2022-09-13T07:07:01.559Z,100148.06
2022-09-13T07:09:29.294Z,100145.38
2022-09-13T07:11:57.748Z,100122.81
2022-09-13T07:14:31.742Z,100164.81
2022-09-13T07:17:00.565Z,100123.50
2022-09-13T07:19:29.643Z,100127.91
2022-09-13T07:21:58.447Z,100078.47
2022-09-13T07:24:27.485Z,100051.44
2022-09-13T07:26:55.493Z,100017.50
2022-09-13T07:29:24.706Z,100012.00
2022-09-13T07:31:58.724Z,99989.34
2022-09-13T07:34:27.648Z,99931.81
2022-09-13T07:36:55.816Z,99899.63
2022-09-13T07:39:24.642Z,99887.81
2022-09-13T07:41:53.821Z,99871.06
2022-09-13T07:44:23.047Z,99802.03
2022-09-13T07:46:51.047Z,99811.56
2022-09-13T07:49:20.579Z,99810.72
2022-09-13T07:51:53.005Z,99812.72
2022-09-13T07:54:21.519Z,99780.34
2022-09-13T07:56:51.747Z,99766.28
2022-09-13T07:59:20.057Z,99757.59
2022-09-13T08:01:49.814Z,99696.94
2022-09-13T08:04:21.449Z,99708.47
2022-09-13T08:06:50.022Z,99723.88
2022-09-13T08:09:18.705Z,99705.25
2022-09-13T08:11:48.694Z,99714.50
2022-09-13T08:14:19.162Z,99678.94
2022-09-13T08:16:47.532Z,99703.78
2022-09-13T08:19:17.533Z,99640.06
2022-09-13T08:21:50.069Z,99595.53
2022-09-13T08:24:21.401Z,99570.09
2022-09-13T08:26:50.079Z,99557.56
2022-09-13T08:29:19.059Z,99564.59
2022-09-13T08:31:47.263Z,99579.50
2022-09-13T08:34:16.813Z,99543.59
2022-09-13T08:36:46.135Z,99596.91
2022-09-13T08:39:18.077Z,99578.97
2022-09-13T08:42:04.748Z,99569.09
2022-09-13T08:44:36.159Z,99529.56
2022-09-13T08:47:21.705Z,99579.56
2022-09-13T08:49:53.527Z,99616.81
2022-09-13T08:52:30.631Z,99611.78
2022-09-13T08:55:01.790Z,99583.47
2022-09-13T08:57:37.788Z,99580.41
2022-09-13T09:00:20.090Z,99618.13
2022-09-13T09:02:59.732Z,99597.84
2022-09-13T09:05:30.778Z,99581.78
2022-09-13T09:08:03.291Z,99599.19
2022-09-13T09:10:39.696Z,99626.47
2022-09-13T09:13:13.803Z,99642.72
2022-09-13T09:15:47.779Z,99645.25
2022-09-13T09:18:21.945Z,99585.47
2022-09-13T09:20:51.726Z,99609.06
2022-09-13T09:23:24.917Z,99569.88
2022-09-13T09:26:14.014Z,99603.56
2022-09-13T09:28:43.339Z,99576.38
2022-09-13T09:31:18.391Z,99608.91
2022-09-13T09:34:08.499Z,99628.00
2022-09-13T09:36:43.379Z,99650.59
2022-09-13T09:39:14.361Z,99618.09
2022-09-13T09:41:42.248Z,99645.19
2022-09-13T09:44:22.567Z,99674.19
2022-09-13T09:46:56.181Z,99659.31
2022-09-13T09:49:50.162Z,99673.34
2022-09-13T09:52:22.957Z,99666.31
2022-09-13T09:54:52.181Z,99660.47
2022-09-13T09:57:20.839Z,99637.16
2022-09-13T09:59:50.123Z,99673.34
2022-09-13T10:02:21.595Z,99679.56
2022-09-13T10:04:58.174Z,99693.59
2022-09-13T10:07:31.240Z,99711.94
2022-09-13T10:10:03.352Z,99705.72
2022-09-13T10:12:35.158Z,99712.47
2022-09-13T10:15:17.831Z,99786.97
2022-09-13T10:18:03.072Z,99772.06
2022-09-13T10:20:31.655Z,99779.94
2022-09-13T10:23:18.669Z,99828.69
2022-09-13T10:25:59.918Z,99914.22
2022-09-13T10:28:28.898Z,99905.34
2022-09-13T10:31:01.233Z,99944.34
2022-09-13T10:33:33.269Z,99938.69
2022-09-13T10:36:04.701Z,99868.56
2022-09-13T10:38:44.140Z,99830.94
2022-09-13T10:41:24.521Z,99797.97
2022-09-13T10:43:58.644Z,99817.63
2022-09-13T10:46:31.723Z,99823.81
2022-09-13T10:49:00.115Z,99781.03
2022-09-13T10:51:37.099Z,99768.00
2022-09-13T10:54:16.634Z,99768.47
2022-09-13T10:56:45.543Z,99847.44
2022-09-13T10:59:25.529Z,99898.75
2022-09-13T11:02:30.306Z,99964.63
2022-09-13T11:05:10.579Z,99993.03
2022-09-13T11:08:31.543Z,100051.41
2022-09-13T11:11:11.700Z,100078.91
2022-09-13T11:13:54.805Z,100001.50
2022-09-13T11:16:35.782Z,100023.03
2022-09-13T11:19:19.142Z,99996.03
2022-09-13T11:22:03.131Z,100003.59
2022-09-13T11:24:51.071Z,99971.50
2022-09-13T11:27:31.145Z,99962.94
2022-09-13T11:30:09.775Z,99987.25
2022-09-13T11:32:53.766Z,99985.19
2022-09-13T11:35:37.356Z,100057.94
2022-09-13T11:38:17.111Z,100058.78
2022-09-13T11:40:57.388Z,100144.69
2022-09-13T11:43:42.692Z,100191.63
2022-09-13T11:46:20.402Z,100176.53
2022-09-13T11:49:08.523Z,100167.50
2022-09-13T11:51:54.182Z,100168.03
2022-09-13T11:54:48.196Z,100185.66
2022-09-13T11:57:22.795Z,100237.34
2022-09-13T11:59:55.182Z,100213.84
2022-09-13T12:02:28.998Z,100180.31
2022-09-13T12:05:21.534Z,100157.09
2022-09-13T12:07:56.655Z,100172.72
2022-09-13T12:10:31.356Z,100235.66
2022-09-13T12:13:16.236Z,100272.34
2022-09-13T12:15:49.924Z,100256.56
2022-09-13T12:18:23.695Z,100261.22
2022-09-13T12:20:56.304Z,100184.56
2022-09-13T12:23:40.370Z,100193.47
2022-09-13T12:26:16.734Z,100193.75
2022-09-13T12:28:52.977Z,100201.59
2022-09-13T12:31:36.195Z,100154.56
2022-09-13T12:37:50.252Z,100054.63
2022-09-13T12:40:40.674Z,99994.06
2022-09-13T12:43:37.682Z,99946.25
2022-09-13T12:46:31.422Z,99927.47
2022-09-13T12:49:33.473Z,99902.94
2022-09-13T12:52:18.410Z,99902.09
2022-09-13T12:55:46.172Z,99908.00
2022-09-13T12:58:40.847Z,99903.38
2022-09-13T13:01:26.379Z,99871.13
2022-09-13T13:04:15.860Z,99898.44
2022-09-13T13:06:56.443Z,99935.19
2022-09-13T13:09:34.806Z,99954.00
2022-09-13T13:12:03.625Z,99946.56
2022-09-13T13:14:53.811Z,99969.06
2022-09-13T13:18:07.516Z,99904.09
2022-09-13T13:21:33.520Z,99948.94
2022-09-13T13:24:39.501Z,99918.44
2022-09-13T13:27:48.462Z,99918.44
2022-09-13T13:31:44.298Z,99875.50
2022-09-13T13:34:08.734Z,99845.38
2022-09-13T13:37:52.291Z,99828.78
2022-09-13T13:40:30.622Z,99845.31
2022-09-13T13:43:37.734Z,99789.84
2022-09-13T13:46:29.353Z,99823.69
2022-09-13T13:49:33.037Z,99790.91
2022-09-13T13:52:46.258Z,99799.22
2022-09-13T13:55:41.209Z,99826.19
2022-09-13T13:58:25.925Z,99823.97
2022-09-13T14:00:56.150Z,99866.41
2022-09-13T14:03:36.408Z,99897.06
2022-09-13T14:06:14.939Z,99939.84
2022-09-13T14:08:58.397Z,99945.19
2022-09-13T14:11:41.914Z,99921.00
2022-09-13T14:14:27.924Z,99950.25
2022-09-13T14:17:16.489Z,99955.91
2022-09-13T14:19:49.469Z,99986.13
2022-09-13T14:22:20.150Z,99977.59
2022-09-13T14:24:49.854Z,100071.53
2022-09-13T14:27:21.347Z,100118.00
2022-09-13T14:29:52.181Z,100112.94
2022-09-13T14:32:23.134Z,100121.69
2022-09-13T14:34:59.427Z,100193.91
2022-09-13T14:37:31.449Z,100630.38
2022-09-13T14:40:02.292Z,100930.78
2022-09-13T14:42:40.704Z,100993.34
2022-09-13T14:45:15.015Z,100961.66
2022-09-13T14:47:51.824Z,100919.63
2022-09-13T14:50:26.303Z,100832.84
2022-09-13T14:52:58.180Z,100754.25
2022-09-13T14:55:31.493Z,100711.19
2022-09-13T14:58:04.423Z,100713.16
2022-09-13T15:00:35.938Z,101065.63
2022-09-13T15:03:13.044Z,101293.91
2022-09-13T15:05:42.425Z,101350.69
2022-09-13T15:08:47.781Z,101338.81
2022-09-13T15:11:27.571Z,101107.66
2022-09-13T15:14:03.519Z,100916.38
2022-09-13T15:16:33.216Z,100793.94
2022-09-13T15:19:18.120Z,100631.81
2022-09-13T15:21:47.560Z,100513.56
2022-09-13T15:24:22.802Z,100395.34
2022-09-13T15:27:01.962Z,100342.34
2022-09-13T15:29:34.661Z,100347.72
2022-09-13T15:32:03.748Z,100394.78
2022-09-13T15:34:31.640Z,100394.50
2022-09-13T15:37:14.867Z,100404.06
2022-09-13T15:39:48.476Z,100443.56
2022-09-13T15:42:17.946Z,100414.66
2022-09-13T15:44:45.952Z,100391.81
2022-09-13T15:47:25.449Z,100420.84
2022-09-13T15:49:56.327Z,100351.34
2022-09-13T15:52:25.641Z,100330.63
2022-09-13T15:54:53.506Z,100313.13
2022-09-13T15:57:24.490Z,100295.78
2022-09-13T15:59:54.350Z,100262.00
2022-09-13T16:02:25.643Z,100225.09
2022-09-13T16:04:56.428Z,100161.06
2022-09-13T16:07:47.718Z,100121.16
2022-09-13T16:10:20.437Z,100029.44
2022-09-13T16:12:51.784Z,100017.56
2022-09-13T16:15:20.032Z,99999.13
2022-09-13T16:17:47.935Z,99991.09
2022-09-13T16:20:17.431Z,99954.50
2022-09-13T16:22:46.748Z,99913.59
2022-09-13T16:25:15.916Z,99804.06
2022-09-13T16:27:45.026Z,99736.22
2022-09-13T16:30:14.933Z,99696.00
2022-09-13T16:32:42.912Z,99649.50
2022-09-13T16:35:12.390Z,99607.13
2022-09-13T16:37:41.163Z,99573.44
2022-09-13T16:40:12.465Z,99545.66
2022-09-13T16:43:00.789Z,99495.38
2022-09-13T16:45:28.789Z,99466.63
2022-09-13T16:47:56.818Z,99482.78
2022-09-13T16:50:25.230Z,99440.75
2022-09-13T16:52:53.041Z,99412.88
2022-09-13T16:55:22.373Z,99419.22
2022-09-13T16:57:52.522Z,99412.88
2022-09-13T17:00:21.118Z,99363.72
2022-09-13T17:02:49.259Z,99341.66
2022-09-13T17:05:17.367Z,99314.22
2022-09-13T17:07:45.508Z,99231.75
2022-09-13T17:10:13.736Z,99213.94
2022-09-13T17:12:43.416Z,99199.25
2022-09-13T17:15:11.978Z,99164.84
2022-09-13T17:17:40.289Z,99162.84
2022-09-13T17:20:12.009Z,99130.28
2022-09-13T17:22:40.036Z,99091.34
2022-09-13T17:25:09.132Z,99069.03
2022-09-13T17:27:37.401Z,99043.00
2022-09-13T17:30:11.420Z,99068.34
2022-09-13T17:32:39.362Z,99067.69
2022-09-13T17:35:08.730Z,99030.47
2022-09-13T17:37:37.111Z,99045.66
2022-09-13T17:40:06.034Z,99034.59
2022-09-13T17:42:33.961Z,99058.69
2022-09-13T17:45:01.950Z,99063.19
2022-09-13T17:47:31.150Z,99091.72
2022-09-13T17:49:59.145Z,99103.38
2022-09-13T17:52:27.722Z,99086.34
2022-09-13T17:54:57.609Z,99087.50
2022-09-13T17:57:25.619Z,99112.06
2022-09-13T17:59:54.877Z,99118.78
2022-09-13T18:02:23.322Z,99135.31
2022-09-13T18:04:53.193Z,99160.34
2022-09-13T18:07:21.198Z,99162.19
2022-09-13T18:09:49.134Z,99175.50
2022-09-13T18:12:17.219Z,99169.19
2022-09-13T18:14:45.144Z,99159.81
2022-09-13T18:17:13.921Z,99141.47
2022-09-13T18:19:46.634Z,99107.72
2022-09-13T18:22:16.729Z,99076.34
2022-09-13T18:24:44.952Z,99046.31
2022-09-13T18:27:13.377Z,99016.78
2022-09-13T18:29:41.262Z,98975.88
2022-09-13T18:32:09.418Z,98951.72
2022-09-13T18:34:37.309Z,98916.19
2022-09-13T18:37:05.705Z,98865.16
2022-09-13T18:39:39.233Z,98847.81
2022-09-13T18:42:12.531Z,98822.16
2022-09-13T18:44:40.781Z,98827.81
2022-09-13T18:47:13.002Z,98815.00
2022-09-13T18:49:43.961Z,98787.00
2022-09-13T18:52:17.262Z,98753.09
2022-09-13T18:54:53.510Z,98780.19
2022-09-13T18:57:24.088Z,98781.84
2022-09-13T18:59:52.667Z,98761.59
2022-09-13T19:02:23.798Z,98791.28
2022-09-13T19:04:56.613Z,98822.50
2022-09-13T19:07:24.654Z,98827.97
2022-09-13T19:10:00.297Z,98830.50
2022-09-13T19:12:28.553Z,98832.16
2022-09-13T19:14:56.391Z,98828.78
2022-09-13T19:17:25.100Z,98860.16
2022-09-13T19:19:53.142Z,98860.81
2022-09-13T19:22:21.005Z,98877.47
2022-09-13T19:24:51.762Z,98892.47
2022-09-13T19:27:24.510Z,98928.53
2022-09-13T19:29:53.917Z,98925.19
2022-09-13T19:32:26.466Z,98958.88
2022-09-13T19:34:54.726Z,99015.56
2022-09-13T19:37:22.676Z,99056.28
2022-09-13T19:39:51.938Z,99101.88
2022-09-13T19:42:23.862Z,99159.31
2022-09-13T19:44:53.869Z,99182.41
2022-09-13T19:50:12.999Z,99188.13
2022-09-13T19:52:46.368Z,99222.91
2022-09-13T19:55:14.601Z,99227.09
2022-09-13T19:57:46.458Z,99215.91
2022-09-13T20:00:15.520Z,99173.41
2022-09-13T20:02:43.691Z,99174.56
2022-09-13T20:05:11.559Z,99205.53
2022-09-13T20:07:39.574Z,99211.19
2022-09-13T20:10:07.785Z,99243.94
2022-09-13T20:12:37.749Z,99292.41
2022-09-13T20:15:08.671Z,99284.56
2022-09-13T20:17:38.010Z,99265.50
2022-09-13T20:20:06.398Z,99297.91
2022-09-13T20:22:34.322Z,99289.91
2022-09-13T20:25:03.180Z,99198.66
2022-09-13T20:27:32.669Z,99185.47
2022-09-13T20:30:01.774Z,99158.09
2022-09-13T20:32:31.227Z,99147.56
2022-09-13T20:34:59.140Z,99114.31
2022-09-13T20:37:27.657Z,99126.88
2022-09-13T20:39:55.659Z,99088.97
2022-09-13T20:42:24.515Z,99052.88
2022-09-13T20:44:52.612Z,99066.97
2022-09-13T20:47:20.558Z,99043.22
2022-09-13T20:49:49.864Z,99020.00
2022-09-13T20:52:17.903Z,99040.91
2022-09-13T20:54:48.507Z,99001.69
2022-09-13T20:57:16.427Z,98998.69
2022-09-13T20:59:44.788Z,98976.00
2022-09-13T21:02:12.756Z,98951.16
2022-09-13T21:04:40.683Z,98939.66
2022-09-13T21:07:30.435Z,98903.44
2022-09-13T21:10:01.034Z,98870.63
2022-09-13T21:12:29.574Z,98840.97
2022-09-13T21:14:57.508Z,98807.97
2022-09-13T21:17:25.820Z,98755.22
2022-09-13T21:19:53.802Z,98738.09
2022-09-13T21:22:25.046Z,98676.44
2022-09-13T21:24:53.190Z,98672.13
2022-09-13T21:27:21.289Z,98614.69
2022-09-13T21:29:49.291Z,98597.75
2022-09-13T21:32:17.170Z,98552.94
2022-09-13T21:34:46.469Z,98520.84
2022-09-13T21:37:14.360Z,98481.41
2022-09-13T21:39:43.648Z,98492.41
2022-09-13T21:42:11.812Z,98482.91
2022-09-13T21:44:39.780Z,98472.78
2022-09-13T21:47:07.772Z,98483.75
2022-09-13T21:49:35.632Z,98475.09
2022-09-13T21:52:04.073Z,98456.44
2022-09-13T21:54:31.891Z,98456.13
2022-09-13T21:57:01.375Z,98484.59
2022-09-13T21:59:29.229Z,98484.75
2022-09-13T22:01:58.208Z,98492.41
2022-09-13T22:04:27.675Z,98495.91
2022-09-13T22:06:56.228Z,98499.38
2022-09-13T22:09:27.056Z,98514.19
2022-09-13T22:11:55.936Z,98540.13
2022-09-13T22:14:25.288Z,98544.28
2022-09-13T22:16:53.624Z,98556.44
2022-09-13T22:19:23.767Z,98547.94
2022-09-13T22:21:55.794Z,98554.94
2022-09-13T22:24:25.594Z,98564.41
2022-09-13T22:26:56.650Z,98559.25
2022-09-13T22:29:26.421Z,98579.22
2022-09-13T22:31:54.802Z,98583.25
2022-09-13T22:34:25.435Z,98592.91
2022-09-13T22:36:55.506Z,98586.75
2022-09-13T22:39:23.662Z,98584.22
2022-09-13T22:41:51.856Z,98593.06
2022-09-13T22:44:19.764Z,98611.22
2022-09-13T22:46:49.102Z,98643.16
2022-09-13T22:49:18.832Z,98647.50
2022-09-13T22:51:47.862Z,98655.16
2022-09-13T22:54:17.572Z,98683.13
2022-09-13T22:56:45.762Z,98685.09
2022-09-13T22:59:15.700Z,98718.44
2022-09-13T23:01:43.898Z,98711.06
2022-09-13T23:04:13.944Z,98729.78
2022-09-13T23:06:43.960Z,98752.41
2022-09-13T23:09:15.699Z,98767.22
2022-09-13T23:11:43.833Z,98754.88
2022-09-13T23:14:13.473Z,98808.41
2022-09-13T23:16:43.536Z,98816.72
2022-09-13T23:19:14.293Z,98833.75
2022-09-13T23:21:42.629Z,98866.75
2022-09-13T23:24:14.111Z,98871.25
2022-09-13T23:26:42.467Z,98875.59
2022-09-13T23:29:13.758Z,98907.59
2022-09-13T23:31:42.626Z,98881.59
2022-09-13T23:34:12.362Z,98930.09
2022-09-13T23:36:44.252Z,98948.75
2022-09-13T23:39:17.672Z,98918.56
2022-09-13T23:41:47.214Z,98889.22
2022-09-13T23:44:15.278Z,98908.75
2022-09-13T23:46:43.586Z,98936.41
2022-09-13T23:49:12.874Z,98892.34
2022-09-13T23:51:42.418Z,98901.75
2022-09-13T23:54:13.938Z,98899.72
2022-09-13T23:56:42.491Z,98901.06
2022-09-13T23:59:12.664Z,98919.91
